Time;durP1;ratioP1;P1;durP2;ratioP2;P2;SDS_P1;SDS_P2;PMS_P1;PMS_P2;Temp;Humidity;BMP_temperature;BMP_pressure;BME280_temperature;BME280_humidity;BME280_pressure;Samples;Min_cycle;Max_cycle;Signal;HPM_P1;HPM_P2
2023/08/28 00:00:58;;;;;;;;;;;;;;;14.37;100.00;96116.56;5104556;28;19941;-69
2023/08/28 00:03:24;;;;;;;;;;;;;;;14.34;100.00;96103.84;5105884;28;19956;-69
2023/08/28 00:05:50;;;;;;;;;;;;;;;14.33;100.00;96110.97;5106179;28;19944;-69
2023/08/28 00:08:16;;;;;;;;;;;;;;;14.32;100.00;96105.94;5105885;28;20027;-70
2023/08/28 00:10:41;;;;;;;;;;;;;;;14.32;100.00;96109.38;5105577;28;19939;-69
2023/08/28 00:13:07;;;;;;;;;;;;;;;14.30;100.00;96119.41;5105517;28;19941;-69
2023/08/28 00:15:33;;;;;;;;;;;;;;;14.29;100.00;96120.44;5105473;28;19957;-70
2023/08/28 00:17:59;;;;;;;;;;;;;;;14.28;100.00;96104.84;5105516;28;20194;-75
2023/08/28 00:20:25;;;;;;;;;;;;;;;14.27;100.00;96096.13;5105404;28;19939;-72
2023/08/28 00:22:51;;;;;;;;;;;;;;;14.25;100.00;96081.63;5105345;28;19948;-72
2023/08/28 00:25:17;;;;;;;;;;;;;;;14.24;100.00;96082.66;5105197;28;19952;-72
2023/08/28 00:27:43;;;;;;;;;;;;;;;14.21;100.00;96089.22;5106068;28;19951;-72
2023/08/28 00:30:09;;;;;;;;;;;;;;;14.20;100.00;96098.19;5105209;28;19941;-72
2023/08/28 00:32:35;;;;;;;;;;;;;;;14.17;100.00;96096.03;5105086;28;19976;-72
2023/08/28 00:35:01;;;;;;;;;;;;;;;14.16;100.00;96105.00;5105149;28;19939;-72
2023/08/28 00:37:27;;;;;;;;;;;;;;;14.14;100.00;96123.72;5105067;28;19938;-75
2023/08/28 00:39:52;;;;;;;;;;;;;;;14.13;100.00;96132.69;5105029;28;20011;-75
2023/08/28 00:42:19;;;;;;;;;;;;;;;14.13;100.00;96139.78;5105816;28;19935;-76
2023/08/28 00:44:45;;;;;;;;;;;;;;;14.12;100.00;96127.63;5104859;28;19960;-75
2023/08/28 00:47:10;;;;;;;;;;;;;;;14.12;100.00;96117.09;5104887;28;19941;-75
2023/08/28 00:49:36;;;;;;;;;;;;;;;14.11;100.00;96108.41;5104856;28;19999;-75
2023/08/28 00:52:03;;;;;;;;;;;;;;;14.10;100.00;96104.16;5104883;28;20181;-75
2023/08/28 00:54:30;;;;;;;;;;;;;;;14.08;100.00;96106.25;5105015;28;19941;-70
2023/08/28 00:56:57;;;;;;;;;;;;;;;14.07;100.00;96109.94;5104560;28;19969;-73
2023/08/28 00:59:23;;;;;;;;;;;;;;;14.07;100.00;96103.84;5104905;28;19942;-73
2023/08/28 01:01:49;;;;;;;;;;;;;;;14.06;100.00;96102.25;5104647;28;19936;-73
2023/08/28 01:04:15;;;;;;;;;;;;;;;14.05;100.00;96101.47;5104620;28;19957;-73
2023/08/28 01:06:46;;;;;;;;;;;;;;;14.05;100.00;96106.75;5102982;28;19937;-73
2023/08/28 01:09:15;;;;;;;;;;;;;;;14.04;100.00;96102.50;5104547;28;19956;-73
2023/08/28 01:11:56;;;;;;;;;;;;;;;14.03;100.00;96108.84;5104594;28;20135;-75
2023/08/28 01:14:26;;;;;;;;;;;;;;;14.01;100.00;96118.84;5105113;28;19943;-76
2023/08/28 01:16:57;;;;;;;;;;;;;;;14.00;100.00;96135.69;5105341;28;19940;-76
2023/08/28 01:19:43;;;;;;;;;;;;;;;13.99;100.00;96126.19;5104457;28;19942;-76
2023/08/28 01:22:28;;;;;;;;;;;;;;;13.99;100.00;96128.81;5104711;28;19946;-75
2023/08/28 01:25:03;;;;;;;;;;;;;;;13.99;100.00;96136.75;5104602;28;19956;-76
2023/08/28 01:27:29;;;;;;;;;;;;;;;13.98;100.00;96135.13;5104923;28;20113;-76
2023/08/28 01:30:05;;;;;;;;;;;;;;;13.97;100.00;96138.81;5104369;28;20131;-71
2023/08/28 01:32:31;;;;;;;;;;;;;;;13.96;100.00;96134.56;5104632;28;19940;-76
2023/08/28 01:34:57;;;;;;;;;;;;;;;13.95;100.00;96128.50;5104379;28;19985;-70
2023/08/28 01:37:27;;;;;;;;;;;;;;;13.95;100.00;96125.88;5104276;28;20132;-71
2023/08/28 01:39:57;;;;;;;;;;;;;;;13.96;100.00;96116.13;5104281;28;19945;-70
2023/08/28 01:42:23;;;;;;;;;;;;;;;13.94;100.00;96115.56;5105041;28;20115;-71
2023/08/28 01:44:54;;;;;;;;;;;;;;;13.94;100.00;96119.03;5104133;28;19958;-71
2023/08/28 01:47:22;;;;;;;;;;;;;;;13.95;100.00;96123.25;5104524;28;19936;-71
2023/08/28 01:49:48;;;;;;;;;;;;;;;13.93;100.00;96106.88;5104968;28;19943;-70
2023/08/28 01:52:13;;;;;;;;;;;;;;;13.93;100.00;96114.00;5104170;28;19944;-73
2023/08/28 01:54:39;;;;;;;;;;;;;;;13.91;100.00;96105.53;5104169;28;19938;-73
2023/08/28 01:57:05;;;;;;;;;;;;;;;13.90;100.00;96101.28;5103946;28;19970;-73
2023/08/28 01:59:31;;;;;;;;;;;;;;;13.90;100.00;96103.94;5104078;28;19944;-73
2023/08/28 02:01:57;;;;;;;;;;;;;;;13.90;100.00;96091.56;5104081;28;20216;-73
2023/08/28 02:04:22;;;;;;;;;;;;;;;13.90;100.00;96080.22;5103963;28;20252;-74
2023/08/28 02:06:49;;;;;;;;;;;;;;;13.89;100.00;96070.72;5104882;28;19942;-70
2023/08/28 02:09:15;;;;;;;;;;;;;;;13.88;100.00;96072.56;5103932;28;19958;-69
2023/08/28 02:11:41;;;;;;;;;;;;;;;13.87;100.00;96067.53;5103969;28;20122;-69
2023/08/28 02:14:07;;;;;;;;;;;;;;;13.85;100.00;96057.22;5103994;28;19939;-69
2023/08/28 02:16:34;;;;;;;;;;;;;;;13.85;100.00;96059.06;5104427;28;20238;-69
2023/08/28 02:19:00;;;;;;;;;;;;;;;13.82;100.00;96044.56;5105976;28;19963;-69
2023/08/28 02:21:25;;;;;;;;;;;;;;;13.83;100.00;96047.97;5107698;28;19933;-70
2023/08/28 02:23:51;;;;;;;;;;;;;;;13.82;100.00;96044.56;5107590;28;19974;-69
2023/08/28 02:26:17;;;;;;;;;;;;;;;13.80;100.00;96036.91;5108496;28;20213;-80
2023/08/28 02:28:43;;;;;;;;;;;;;;;13.80;100.00;96039.53;5107867;28;19936;-80
2023/08/28 02:31:09;;;;;;;;;;;;;;;13.80;100.00;96054.56;5107476;28;19940;-80
2023/08/28 02:33:34;;;;;;;;;;;;;;;13.81;100.00;96040.31;5107449;28;19951;-80
2023/08/28 02:36:01;;;;;;;;;;;;;;;13.81;100.00;96035.03;5107410;28;19941;-80
2023/08/28 02:38:27;;;;;;;;;;;;;;;13.80;100.00;96030.84;5107337;28;20217;-80
2023/08/28 02:40:53;;;;;;;;;;;;;;;13.79;100.00;96032.66;5107360;28;19943;-80
2023/08/28 02:43:18;;;;;;;;;;;;;;;13.78;100.00;96035.56;5107306;28;19977;-73
2023/08/28 02:45:44;;;;;;;;;;;;;;;13.76;100.00;96040.28;5106150;28;19960;-69
2023/08/28 02:48:10;;;;;;;;;;;;;;;13.75;100.00;96031.59;5108029;28;19943;-69
2023/08/28 02:50:36;;;;;;;;;;;;;;;13.74;100.00;96029.19;5107086;28;19979;-69
2023/08/28 02:53:03;;;;;;;;;;;;;;;13.74;100.00;96037.09;5107702;28;19942;-69
2023/08/28 02:55:39;;;;;;;;;;;;;;;13.74;100.00;96045.00;5107055;28;19940;-69
2023/08/28 02:58:05;;;;;;;;;;;;;;;13.72;100.00;96037.34;5107889;28;19949;-69
2023/08/28 03:00:31;;;;;;;;;;;;;;;13.73;100.00;96036.31;5106974;28;19946;-69
2023/08/28 03:02:57;;;;;;;;;;;;;;;13.72;100.00;96031.28;5106958;28;19943;-81
2023/08/28 03:05:23;;;;;;;;;;;;;;;13.70;100.00;96028.09;5107342;28;19959;-70
2023/08/28 03:07:49;;;;;;;;;;;;;;;13.69;100.00;96021.22;5106802;28;19982;-69
2023/08/28 03:10:14;;;;;;;;;;;;;;;13.68;100.00;96022.28;5107353;28;19947;-69
2023/08/28 03:12:40;;;;;;;;;;;;;;;13.67;100.00;96018.84;5107529;28;20005;-69
2023/08/28 03:15:07;;;;;;;;;;;;;;;13.65;100.00;96013.03;5106746;28;20283;-69
2023/08/28 03:17:33;;;;;;;;;;;;;;;13.66;100.00;96003.28;5106597;28;19936;-69
2023/08/28 03:19:59;;;;;;;;;;;;;;;13.65;100.00;95996.41;5106617;28;19948;-79
2023/08/28 03:22:25;;;;;;;;;;;;;;;13.65;100.00;96006.94;5106514;28;20136;-76
2023/08/28 03:24:52;;;;;;;;;;;;;;;13.64;100.00;96000.88;5106406;28;19963;-70
2023/08/28 03:27:19;;;;;;;;;;;;;;;13.64;100.00;96005.38;5106448;28;19942;-70
2023/08/28 03:29:45;;;;;;;;;;;;;;;13.64;100.00;96005.38;5105859;28;19944;-70
2023/08/28 03:32:10;;;;;;;;;;;;;;;13.60;100.00;96011.13;5106328;28;20012;-70
2023/08/28 03:34:36;;;;;;;;;;;;;;;13.60;100.00;95999.78;5107101;28;20275;-71
2023/08/28 03:37:02;;;;;;;;;;;;;;;13.59;100.00;96000.84;5106314;28;20027;-70
2023/08/28 03:39:28;;;;;;;;;;;;;;;13.57;100.00;96003.72;5106184;28;19947;-80
2023/08/28 03:41:54;;;;;;;;;;;;;;;13.56;100.00;96004.75;5106992;28;19946;-69
2023/08/28 03:44:20;;;;;;;;;;;;;;;13.54;100.00;96006.84;5106093;28;19966;-70
2023/08/28 03:46:45;;;;;;;;;;;;;;;13.53;100.00;96007.88;5106072;28;19939;-69
2023/08/28 03:49:11;;;;;;;;;;;;;;;13.50;100.00;96007.56;5106576;28;20003;-69
2023/08/28 03:51:37;;;;;;;;;;;;;;;13.47;100.00;96011.50;5104884;28;19941;-69
2023/08/28 03:54:03;;;;;;;;;;;;;;;13.47;100.00;96018.63;5105931;28;19944;-69
2023/08/28 03:56:32;;;;;;;;;;;;;;;13.45;100.00;96020.69;5105658;28;19968;-72
2023/08/28 03:58:57;;;;;;;;;;;;;;;13.43;100.00;96022.78;5106078;28;19943;-72
2023/08/28 04:01:24;;;;;;;;;;;;;;;13.40;100.00;96027.50;5105742;28;20218;-70
2023/08/28 04:03:49;;;;;;;;;;;;;;;13.39;100.00;96028.53;5105636;28;19949;-69
2023/08/28 04:06:15;;;;;;;;;;;;;;;13.38;100.00;96026.16;5106083;28;19939;-69
2023/08/28 04:08:41;;;;;;;;;;;;;;;13.33;100.00;96015.56;5105568;28;19954;-69
2023/08/28 04:11:07;;;;;;;;;;;;;;;13.29;100.00;96014.44;5105632;28;19999;-69
2023/08/28 04:13:33;;;;;;;;;;;;;;;13.22;100.00;96014.59;5105536;28;20121;-70
2023/08/28 04:15:59;;;;;;;;;;;;;;;13.17;100.00;96011.94;5106357;28;19979;-69
2023/08/28 04:18:25;;;;;;;;;;;;;;;13.13;100.00;96000.28;5105474;28;19939;-72
2023/08/28 04:20:51;;;;;;;;;;;;;;;13.11;100.00;95997.91;5105413;28;19939;-72
2023/08/28 04:23:17;;;;;;;;;;;;;;;13.08;100.00;95995.75;5105356;28;20254;-73
2023/08/28 04:25:43;;;;;;;;;;;;;;;13.07;100.00;95998.63;5105996;28;19963;-72
2023/08/28 04:28:09;;;;;;;;;;;;;;;13.05;100.00;95990.97;5104170;28;19937;-72
2023/08/28 04:30:35;;;;;;;;;;;;;;;13.05;100.00;95990.19;5105763;28;19946;-72
2023/08/28 04:33:00;;;;;;;;;;;;;;;13.03;100.00;95995.69;5105199;28;20131;-72
2023/08/28 04:35:26;;;;;;;;;;;;;;;13.02;100.00;95994.09;5105112;28;19944;-74
2023/08/28 04:37:52;;;;;;;;;;;;;;;13.02;100.00;95991.47;5105118;28;19937;-72
2023/08/28 04:40:18;;;;;;;;;;;;;;;13.02;100.00;95994.09;5105273;28;19941;-72
2023/08/28 04:42:44;;;;;;;;;;;;;;;13.02;100.00;95991.47;5104099;28;19944;-72
2023/08/28 04:45:10;;;;;;;;;;;;;;;13.02;100.00;95994.09;5103817;28;19953;-72
2023/08/28 04:47:35;;;;;;;;;;;;;;;13.02;100.00;95998.56;5104911;28;19943;-72
2023/08/28 04:50:01;;;;;;;;;;;;;;;13.02;100.00;95998.56;5104852;28;19939;-73
2023/08/28 04:52:27;;;;;;;;;;;;;;;13.05;100.00;96001.50;5103811;28;19937;-69
2023/08/28 04:54:53;;;;;;;;;;;;;;;13.06;100.00;95992.56;5104787;28;19940;-73
2023/08/28 04:57:19;;;;;;;;;;;;;;;13.05;100.00;95998.88;5086897;28;19997;-75
2023/08/28 04:59:45;;;;;;;;;;;;;;;13.02;100.00;95999.38;5105521;28;19947;-76
2023/08/28 05:02:10;;;;;;;;;;;;;;;13.00;100.00;95993.56;5104643;28;20232;-76
2023/08/28 05:04:36;;;;;;;;;;;;;;;13.00;100.00;95996.19;5105384;28;19953;-76
2023/08/28 05:07:03;;;;;;;;;;;;;;;12.98;100.00;95996.41;5105098;28;19939;-76
2023/08/28 05:09:28;;;;;;;;;;;;;;;12.99;100.00;95997.22;5104570;28;20123;-76
2023/08/28 05:11:54;;;;;;;;;;;;;;;12.98;100.00;95995.63;5104584;28;19948;-72
2023/08/28 05:14:20;;;;;;;;;;;;;;;12.98;100.00;95999.06;5104545;28;19972;-70
2023/08/28 05:16:46;;;;;;;;;;;;;;;12.98;100.00;95993.78;5105335;28;20025;-70
2023/08/28 05:19:12;;;;;;;;;;;;;;;12.99;100.00;95976.16;5105266;28;19948;-69
2023/08/28 05:21:38;;;;;;;;;;;;;;;12.98;100.00;95970.09;5104427;28;19943;-69
2023/08/28 05:24:03;;;;;;;;;;;;;;;12.99;100.00;95973.53;5104312;28;19937;-70
2023/08/28 05:26:29;;;;;;;;;;;;;;;12.99;100.00;95968.25;5104909;28;20256;-70
2023/08/28 05:28:56;;;;;;;;;;;;;;;12.98;100.00;95977.22;5104326;28;19943;-70
2023/08/28 05:31:21;;;;;;;;;;;;;;;12.94;100.00;95978.72;5104348;28;20107;-79
2023/08/28 05:33:47;;;;;;;;;;;;;;;12.94;100.00;95984.00;5104304;28;19939;-80
2023/08/28 05:36:13;;;;;;;;;;;;;;;12.92;100.00;95984.22;5104231;28;19945;-80
2023/08/28 05:38:39;;;;;;;;;;;;;;;12.95;100.00;95991.63;5104645;28;19941;-80
2023/08/28 05:41:05;;;;;;;;;;;;;;;12.98;100.00;95987.75;5104272;28;19942;-79
2023/08/28 05:43:30;;;;;;;;;;;;;;;13.00;100.00;95990.91;5104688;28;19946;-79
2023/08/28 05:45:56;;;;;;;;;;;;;;;12.99;100.00;95992.72;5104670;28;19954;-79
2023/08/28 05:48:22;;;;;;;;;;;;;;;13.00;100.00;95996.19;5104451;28;19941;-73
2023/08/28 05:50:48;;;;;;;;;;;;;;;13.03;100.00;95989.63;5104162;28;20155;-69
2023/08/28 05:53:14;;;;;;;;;;;;;;;13.04;100.00;95992.03;5105582;28;19944;-70
2023/08/28 05:55:40;;;;;;;;;;;;;;;13.08;100.00;95987.03;5108054;28;19972;-70
2023/08/28 05:58:06;;;;;;;;;;;;;;;13.13;100.00;95987.13;5108687;28;19946;-70
2023/08/28 06:00:31;;;;;;;;;;;;;;;13.14;100.00;95972.91;5108903;28;20122;-69
2023/08/28 06:02:58;;;;;;;;;;;;;;;13.18;100.00;95963.47;5108014;28;20280;-69
2023/08/28 06:05:24;;;;;;;;;;;;;;;13.21;100.00;95955.09;5107878;28;19951;-70
2023/08/28 06:07:50;;;;;;;;;;;;;;;13.21;100.00;95949.84;5107919;28;19966;-72
2023/08/28 06:10:19;;;;;;;;;;;;;;;13.23;100.00;95945.13;5106730;28;20122;-73
2023/08/28 06:12:46;;;;;;;;;;;;;;;13.26;100.00;95935.94;5107834;28;19942;-74
2023/08/28 06:15:21;;;;;;;;;;;;;;;13.29;100.00;95927.56;5107796;28;20234;-73
2023/08/28 06:17:49;;;;;;;;;;;;;;;13.30;100.00;95921.25;5108312;28;20125;-72
2023/08/28 06:20:15;;;;;;;;;;;;;;;13.29;100.00;95922.28;5107673;28;19964;-73
2023/08/28 06:22:42;;;;;;;;;;;;;;;13.29;100.00;95917.84;5108131;28;20230;-73
2023/08/28 06:25:09;;;;;;;;;;;;;;;13.30;100.00;95918.63;5108397;28;19951;-73
2023/08/28 06:27:34;;;;;;;;;;;;;;;13.30;100.00;95923.88;5107593;28;19988;-70
2023/08/28 06:30:03;;;;;;;;;;;;;;;13.30;100.00;95931.78;5107494;28;19938;-70
2023/08/28 06:32:29;;;;;;;;;;;;;;;13.32;100.00;95927.84;5107446;28;19938;-70
2023/08/28 06:34:55;;;;;;;;;;;;;;;13.34;100.00;95938.16;5107419;28;19938;-70
2023/08/28 06:37:21;;;;;;;;;;;;;;;13.34;100.00;95930.25;5107947;28;19941;-70
2023/08/28 06:39:48;;;;;;;;;;;;;;;13.35;100.00;95935.25;5107329;28;19940;-71
2023/08/28 06:42:13;;;;;;;;;;;;;;;13.37;100.00;95927.91;5107342;28;19936;-70
2023/08/28 06:44:39;;;;;;;;;;;;;;;13.38;100.00;95908.44;5106039;28;19964;-73
2023/08/28 06:47:05;;;;;;;;;;;;;;;13.39;100.00;95898.69;5106368;28;20011;-72
2023/08/28 06:49:31;;;;;;;;;;;;;;;13.40;100.00;95903.72;5107116;28;19973;-73
2023/08/28 06:51:57;;;;;;;;;;;;;;;13.43;100.00;95918.22;5107105;28;20036;-72
2023/08/28 06:54:23;;;;;;;;;;;;;;;13.46;100.00;95930.91;5107049;28;19943;-73
2023/08/28 06:56:48;;;;;;;;;;;;;;;13.48;100.00;95928.81;5106826;28;19965;-72
2023/08/28 06:59:14;;;;;;;;;;;;;;;13.50;100.00;95918.84;5106998;28;19952;-72
2023/08/28 07:01:41;;;;;;;;;;;;;;;13.52;100.00;95902.75;5106952;28;19945;-76
2023/08/28 07:04:07;;;;;;;;;;;;;;;13.53;100.00;95915.69;5106672;28;19950;-69
2023/08/28 07:06:33;;;;;;;;;;;;;;;13.54;100.00;95937.53;5105968;28;19960;-70
2023/08/28 07:08:59;;;;;;;;;;;;;;;13.53;100.00;95949.16;5107548;28;19965;-69
2023/08/28 07:11:25;;;;;;;;;;;;;;;13.55;100.00;95958.38;5106731;28;19962;-70
2023/08/28 07:13:53;;;;;;;;;;;;;;;13.57;100.00;95953.66;5106727;28;20222;-70
2023/08/28 07:16:19;;;;;;;;;;;;;;;13.59;100.00;95961.31;5106649;28;20122;-69
2023/08/28 07:18:45;;;;;;;;;;;;;;;13.61;100.00;95946.06;5106522;28;19948;-69
2023/08/28 07:21:11;;;;;;;;;;;;;;;13.62;100.00;95942.38;5106526;28;19938;-72
2023/08/28 07:23:36;;;;;;;;;;;;;;;13.65;100.00;95946.34;5106443;28;20280;-76
2023/08/28 07:26:03;;;;;;;;;;;;;;;13.62;100.00;95946.84;5106319;28;19977;-76
2023/08/28 07:28:29;;;;;;;;;;;;;;;13.62;100.00;95942.38;5106404;28;19938;-76
2023/08/28 07:30:55;;;;;;;;;;;;;;;13.63;100.00;95945.78;5107168;28;19941;-76
2023/08/28 07:33:21;;;;;;;;;;;;;;;13.62;100.00;95929.19;5106290;28;19937;-76
2023/08/28 07:35:47;;;;;;;;;;;;;;;13.61;100.00;95906.53;5106280;28;19944;-76
2023/08/28 07:38:13;;;;;;;;;;;;;;;13.60;100.00;95915.47;5106233;28;19944;-70
2023/08/28 07:40:39;;;;;;;;;;;;;;;13.60;100.00;95915.47;5106128;28;19941;-69
2023/08/28 07:43:06;;;;;;;;;;;;;;;13.60;100.00;95913.63;5106118;28;19991;-70
2023/08/28 07:45:32;;;;;;;;;;;;;;;13.64;100.00;95915.78;5105900;28;19952;-69
2023/08/28 07:47:59;;;;;;;;;;;;;;;13.65;100.00;95918.19;5106007;28;19944;-69
2023/08/28 07:50:26;;;;;;;;;;;;;;;13.70;100.00;95941.91;5105953;28;19931;-69
2023/08/28 07:52:51;;;;;;;;;;;;;;;13.74;100.00;95944.88;5105862;28;19958;-69
2023/08/28 07:55:17;;;;;;;;;;;;;;;13.79;100.00;95960.72;5105848;28;19937;-70
2023/08/28 07:57:43;;;;;;;;;;;;;;;13.82;100.00;95960.22;5105718;28;19969;-76
2023/08/28 08:00:12;;;;;;;;;;;;;;;13.86;100.00;95960.50;5105743;28;19947;-76
2023/08/28 08:02:38;;;;;;;;;;;;;;;13.86;100.00;95948.13;5105642;28;20143;-76
2023/08/28 08:05:04;;;;;;;;;;;;;;;13.90;100.00;95943.13;5105616;28;19955;-76
2023/08/28 08:07:32;;;;;;;;;;;;;;;13.92;100.00;95944.50;5105747;28;19978;-76
2023/08/28 08:09:58;;;;;;;;;;;;;;;13.94;100.00;95960.88;5105589;28;19948;-76
2023/08/28 08:12:26;;;;;;;;;;;;;;;13.94;100.00;95952.94;5105581;28;20092;-77
2023/08/28 08:14:52;;;;;;;;;;;;;;;13.94;100.00;95952.94;5105955;28;19953;-73
2023/08/28 08:17:18;;;;;;;;;;;;;;;13.96;100.00;95958.78;5105308;28;19944;-73
2023/08/28 08:19:44;;;;;;;;;;;;;;;13.97;100.00;95959.56;5105340;28;19940;-76
2023/08/28 08:22:10;;;;;;;;;;;;;;;13.99;100.00;95966.16;5105618;28;19934;-76
2023/08/28 08:24:36;;;;;;;;;;;;;;;14.02;100.00;95970.91;5105275;28;19940;-76
2023/08/28 08:27:03;;;;;;;;;;;;;;;14.08;100.00;95963.84;5105158;28;20238;-76
2023/08/28 08:29:29;;;;;;;;;;;;;;;14.10;100.00;95956.50;5105150;28;20242;-76
2023/08/28 08:31:56;;;;;;;;;;;;;;;14.12;100.00;95964.94;5105735;28;19935;-75
2023/08/28 08:34:21;;;;;;;;;;;;;;;14.16;100.00;95962.59;5105127;28;20122;-69
2023/08/28 08:36:47;;;;;;;;;;;;;;;14.18;100.00;95949.97;5105038;28;19941;-73
2023/08/28 08:39:13;;;;;;;;;;;;;;;14.21;100.00;95957.34;5105038;28;19936;-73
2023/08/28 08:41:39;;;;;;;;;;;;;;;14.24;100.00;95966.59;5105470;28;19932;-73
2023/08/28 08:44:05;;;;;;;;;;;;;;;14.27;100.00;95976.66;5104935;28;19938;-74
2023/08/28 08:46:33;;;;;;;;;;;;;;;14.27;100.00;95988.00;5104825;28;19957;-73
2023/08/28 08:49:00;;;;;;;;;;;;;;;14.27;100.00;95977.44;5105407;28;19943;-73
2023/08/28 08:51:29;;;;;;;;;;;;;;;14.24;100.00;95974.50;5104866;28;19936;-73
2023/08/28 08:53:59;;;;;;;;;;;;;;;14.17;100.00;95959.72;5104817;28;19941;-69
2023/08/28 08:56:27;;;;;;;;;;;;;;;14.17;100.00;95970.28;5104595;28;20042;-76
2023/08/28 08:58:53;;;;;;;;;;;;;;;14.17;100.00;95975.56;5104636;28;19944;-76
2023/08/28 09:01:19;;;;;;;;;;;;;;;14.20;100.00;95982.94;5104687;28;19941;-76
2023/08/28 09:03:46;;;;;;;;;;;;;;;14.27;100.00;95987.22;5104552;28;19940;-76
2023/08/28 09:06:12;;;;;;;;;;;;;;;14.34;100.00;95985.16;5104505;28;19952;-76
2023/08/28 09:08:40;;;;;;;;;;;;;;;14.38;100.00;95979.13;5104680;28;19960;-76
2023/08/28 09:11:06;;;;;;;;;;;;;;;14.40;100.00;95984.94;5104594;28;19944;-71
2023/08/28 09:13:33;;;;;;;;;;;;;;;14.43;100.00;95983.66;5104496;28;19941;-71
2023/08/28 09:15:58;;;;;;;;;;;;;;;14.46;100.00;95977.06;5103379;28;19934;-70
2023/08/28 09:18:28;;;;;;;;;;;;;;;14.49;100.00;95971.25;5104443;28;20226;-71
2023/08/28 09:21:09;;;;;;;;;;;;;;;14.53;100.00;95974.97;5104429;28;19951;-71
2023/08/28 09:23:40;;;;;;;;;;;;;;;14.53;100.00;95974.97;5104357;28;19943;-70
2023/08/28 09:26:06;;;;;;;;;;;;;;;14.51;100.00;95961.25;5104257;28;19968;-71
2023/08/28 09:28:31;;;;;;;;;;;;;;;14.55;100.00;95959.69;5104285;28;19933;-71
2023/08/28 09:30:57;;;;;;;;;;;;;;;14.58;100.00;95956.59;5104366;28;20235;-71
2023/08/28 09:33:23;;;;;;;;;;;;;;;14.60;100.00;95957.91;5104859;28;20124;-72
2023/08/28 09:35:49;;;;;;;;;;;;;;;14.61;100.00;95942.88;5104211;28;19935;-72
2023/08/28 09:38:15;;;;;;;;;;;;;;;14.62;100.00;95936.56;5104250;28;19951;-72
2023/08/28 09:40:41;;;;;;;;;;;;;;;14.62;100.00;95928.66;5104203;28;19977;-72
2023/08/28 09:43:12;;;;;;;;;;;;;;;14.64;100.00;95916.00;5104706;28;20272;-72
2023/08/28 09:45:38;;;;;;;;;;;;;;;14.65;100.00;95899.09;5104027;28;19958;-72
2023/08/28 09:48:05;;;;;;;;;;;;;;;14.70;100.00;95903.59;5104096;28;19954;-74
2023/08/28 09:50:31;;;;;;;;;;;;;;;14.73;100.00;95909.16;5104118;28;19930;-70
2023/08/28 09:53:15;;;;;;;;;;;;;;;14.78;100.00;95893.38;5104146;28;20130;-70
2023/08/28 09:55:51;;;;;;;;;;;;;;;14.81;100.00;95890.19;5104201;28;19938;-71
2023/08/28 09:58:17;;;;;;;;;;;;;;;14.84;100.00;95896.00;5104642;28;20110;-70
2023/08/28 10:00:44;;;;;;;;;;;;;;;14.86;100.00;95886.78;5103983;28;19936;-70
2023/08/28 10:03:11;;;;;;;;;;;;;;;14.88;100.00;95886.53;5104803;28;19942;-70
2023/08/28 10:05:38;;;;;;;;;;;;;;;14.92;100.00;95898.16;5103937;28;19960;-79
2023/08/28 10:08:11;;;;;;;;;;;;;;;14.93;100.00;95894.44;5102841;28;19983;-73
2023/08/28 10:10:39;;;;;;;;;;;;;;;14.92;100.00;95900.78;5104174;28;20122;-73
2023/08/28 10:13:06;;;;;;;;;;;;;;;14.92;100.00;95904.22;5103902;28;19945;-73
2023/08/28 10:15:33;;;;;;;;;;;;;;;14.92;100.00;95892.88;5102747;28;20134;-73
2023/08/28 10:18:08;;;;;;;;;;;;;;;14.92;100.00;95900.78;5103999;28;19937;-73
2023/08/28 10:20:34;;;;;;;;;;;;;;;14.91;100.00;95905.28;5104714;28;19953;-73
2023/08/28 10:23:01;;;;;;;;;;;;;;;14.92;100.00;95900.78;5103876;28;19936;-72
2023/08/28 10:25:28;;;;;;;;;;;;;;;14.92;100.00;95895.50;5103742;28;19966;-72
2023/08/28 10:27:54;;;;;;;;;;;;;;;14.88;100.00;95899.72;5103795;28;19944;-76
2023/08/28 10:30:21;;;;;;;;;;;;;;;14.87;100.00;95895.50;5102666;28;19935;-75
2023/08/28 10:32:50;;;;;;;;;;;;;;;14.85;100.00;95892.34;5103695;28;19943;-76
2023/08/28 10:35:16;;;;;;;;;;;;;;;14.83;100.00;95900.50;5103718;28;19943;-75
2023/08/28 10:37:42;;;;;;;;;;;;;;;14.83;100.00;95889.94;5102603;28;20131;-76
2023/08/28 10:40:09;;;;;;;;;;;;;;;14.88;100.00;95884.66;5104356;28;20037;-76
2023/08/28 10:42:35;;;;;;;;;;;;;;;14.93;100.00;95884.72;5106933;28;19940;-72
2023/08/28 10:45:01;;;;;;;;;;;;;;;14.95;100.00;95871.22;5107198;28;20218;-72
2023/08/28 10:47:27;;;;;;;;;;;;;;;14.98;100.00;95876.00;5107953;28;19965;-72
2023/08/28 10:49:57;;;;;;;;;;;;;;;14.98;100.00;95860.16;5107136;28;20006;-72
2023/08/28 10:52:23;;;;;;;;;;;;;;;14.99;100.00;95867.81;5107009;28;20222;-71
2023/08/28 10:54:50;;;;;;;;;;;;;;;15.02;100.00;95859.38;5107571;28;19937;-73
2023/08/28 10:57:26;;;;;;;;;;;;;;;15.09;100.00;95858.34;5106810;28;20061;-71
2023/08/28 10:59:52;;;;;;;;;;;;;;;15.18;100.00;95868.13;5107710;28;19950;-70
2023/08/28 11:02:18;;;;;;;;;;;;;;;15.28;100.00;95854.13;5106931;28;19947;-70
2023/08/28 11:04:45;;;;;;;;;;;;;;;15.35;100.00;95857.34;5107047;28;19997;-71
2023/08/28 11:07:23;;;;;;;;;;;;;;;15.37;100.00;95857.06;5107110;28;20154;-71
2023/08/28 11:09:49;;;;;;;;;;;;;;;15.36;100.00;95864.19;5106747;28;19943;-71
2023/08/28 11:12:18;;;;;;;;;;;;;;;15.35;100.00;95870.53;5106673;28;19937;-71
2023/08/28 11:15:05;;;;;;;;;;;;;;;15.36;100.00;95868.69;5106637;28;19939;-71
2023/08/28 11:17:31;;;;;;;;;;;;;;;15.38;100.00;95859.44;5107401;28;19949;-71
2023/08/28 11:19:57;;;;;;;;;;;;;;;15.43;100.00;95848.06;5106577;28;20219;-78
2023/08/28 11:22:37;;;;;;;;;;;;;;;15.45;100.00;95847.81;5106539;28;19937;-70
2023/08/28 11:25:08;;;;;;;;;;;;;;;15.42;100.00;95859.72;5106692;28;19937;-70
2023/08/28 11:27:45;;;;;;;;;;;;;;;15.43;100.00;95869.22;5106841;28;19957;-70
2023/08/28 11:30:12;;;;;;;;;;;;;;;15.46;100.00;95858.13;5106372;28;20225;-71
2023/08/28 11:32:39;;;;;;;;;;;;;;;15.49;100.00;95848.88;5106272;28;19949;-70
2023/08/28 11:35:08;;;;;;;;;;;;;;;15.49;100.00;95838.31;5106258;28;19941;-70
2023/08/28 11:37:35;;;;;;;;;;;;;;;15.50;100.00;95850.47;5106204;28;19939;-70
2023/08/28 11:40:05;;;;;;;;;;;;;;;15.53;100.00;95866.59;5106450;28;20123;-76
2023/08/28 11:42:31;;;;;;;;;;;;;;;15.54;100.00;95851.50;5104897;28;19945;-77
2023/08/28 11:44:57;;;;;;;;;;;;;;;15.56;100.00;95852.03;5106612;28;19943;-76
2023/08/28 11:47:23;;;;;;;;;;;;;;;15.56;100.00;95855.50;5105900;28;19958;-77
2023/08/28 11:49:49;;;;;;;;;;;;;;;15.51;100.00;95850.19;5105888;28;19935;-77
2023/08/28 11:52:16;;;;;;;;;;;;;;;15.47;100.00;95851.00;5105492;28;19934;-77
2023/08/28 11:54:42;;;;;;;;;;;;;;;15.45;100.00;95850.47;5105869;28;19944;-77
2023/08/28 11:57:08;;;;;;;;;;;;;;;15.46;100.00;95855.50;5105907;28;20285;-72
2023/08/28 11:59:34;;;;;;;;;;;;;;;15.47;100.00;95851.00;5106304;28;19936;-70
2023/08/28 12:02:02;;;;;;;;;;;;;;;15.48;100.00;95849.94;5105697;28;20140;-70
2023/08/28 12:04:28;;;;;;;;;;;;;;;15.50;100.00;95839.91;5105683;28;19941;-70
2023/08/28 12:06:54;;;;;;;;;;;;;;;15.53;100.00;95849.94;5105458;28;19962;-70
2023/08/28 12:09:20;;;;;;;;;;;;;;;15.53;100.00;95834.09;5105619;28;19933;-69
2023/08/28 12:11:46;;;;;;;;;;;;;;;15.53;100.00;95842.81;5106070;28;19937;-70
2023/08/28 12:14:16;;;;;;;;;;;;;;;15.54;100.00;95835.66;5105758;28;19942;-70
2023/08/28 12:16:42;;;;;;;;;;;;;;;15.55;100.00;95818.75;5106031;28;19938;-78
2023/08/28 12:19:07;;;;;;;;;;;;;;;15.58;100.00;95844.66;5105427;28;19950;-77
2023/08/28 12:21:34;;;;;;;;;;;;;;;15.61;100.00;95838.84;5105849;28;19940;-77
2023/08/28 12:24:00;;;;;;;;;;;;;;;15.67;100.00;95842.28;5105832;28;19934;-77
2023/08/28 12:26:26;;;;;;;;;;;;;;;15.73;100.00;95844.69;5105238;28;19958;-77
2023/08/28 12:28:53;;;;;;;;;;;;;;;15.77;100.00;95835.19;5105993;28;19937;-77
2023/08/28 12:31:45;;;;;;;;;;;;;;;15.80;100.00;95847.84;5104129;28;19948;-77
2023/08/28 12:34:11;;;;;;;;;;;;;;;15.82;100.00;95847.59;5101591;28;19944;-72